sensor_id;sensor_type;location;lat;lon;timestamp;P1;durP1;ratioP1;P2;durP2;ratioP2
57627;SDS011;43451;49.060;10.616;2023-09-30T00:01:42;16.92;;;6.07;;
57627;SDS011;43451;49.060;10.616;2023-09-30T00:07:00;16.25;;;6.18;;
57627;SDS011;43451;49.060;10.616;2023-09-30T00:09:44;16.13;;;5.88;;
57627;SDS011;43451;49.060;10.616;2023-09-30T00:12:10;17.67;;;6.00;;
57627;SDS011;43451;49.060;10.616;2023-09-30T00:14:35;17.58;;;5.55;;
57627;SDS011;43451;49.060;10.616;2023-09-30T00:17:02;17.35;;;6.00;;
57627;SDS011;43451;49.060;10.616;2023-09-30T00:22:12;15.32;;;6.05;;
57627;SDS011;43451;49.060;10.616;2023-09-30T00:24:45;13.98;;;5.25;;
57627;SDS011;43451;49.060;10.616;2023-09-30T00:27:11;15.60;;;5.75;;
57627;SDS011;43451;49.060;10.616;2023-09-30T00:29:36;18.30;;;5.85;;
57627;SDS011;43451;49.060;10.616;2023-09-30T00:32:01;17.10;;;5.40;;
57627;SDS011;43451;49.060;10.616;2023-09-30T00:34:27;14.43;;;5.38;;
57627;SDS011;43451;49.060;10.616;2023-09-30T00:40:10;12.32;;;4.80;;
57627;SDS011;43451;49.060;10.616;2023-09-30T00:42:39;13.98;;;5.30;;
57627;SDS011;43451;49.060;10.616;2023-09-30T00:45:11;15.18;;;5.43;;
57627;SDS011;43451;49.060;10.616;2023-09-30T00:47:37;14.00;;;4.82;;
57627;SDS011;43451;49.060;10.616;2023-09-30T00:50:03;13.13;;;4.85;;
57627;SDS011;43451;49.060;10.616;2023-09-30T00:55:24;12.45;;;4.88;;
57627;SDS011;43451;49.060;10.616;2023-09-30T00:57:49;13.05;;;5.00;;
57627;SDS011;43451;49.060;10.616;2023-09-30T01:00:15;13.27;;;4.80;;
57627;SDS011;43451;49.060;10.616;2023-09-30T01:02:41;14.02;;;4.90;;
57627;SDS011;43451;49.060;10.616;2023-09-30T01:07:57;13.43;;;4.65;;
57627;SDS011;43451;49.060;10.616;2023-09-30T01:10:22;12.13;;;5.00;;
57627;SDS011;43451;49.060;10.616;2023-09-30T01:12:56;14.20;;;4.72;;
57627;SDS011;43451;49.060;10.616;2023-09-30T01:15:21;12.23;;;4.40;;
57627;SDS011;43451;49.060;10.616;2023-09-30T01:17:46;12.38;;;4.50;;
57627;SDS011;43451;49.060;10.616;2023-09-30T01:20:18;12.07;;;4.60;;
57627;SDS011;43451;49.060;10.616;2023-09-30T01:25:38;11.23;;;4.50;;
57627;SDS011;43451;49.060;10.616;2023-09-30T01:28:07;11.40;;;4.50;;
57627;SDS011;43451;49.060;10.616;2023-09-30T01:30:33;10.95;;;4.00;;
57627;SDS011;43451;49.060;10.616;2023-09-30T01:33:15;10.70;;;3.92;;
57627;SDS011;43451;49.060;10.616;2023-09-30T01:35:52;9.85;;;4.05;;
57627;SDS011;43451;49.060;10.616;2023-09-30T01:43:53;8.93;;;3.50;;
57627;SDS011;43451;49.060;10.616;2023-09-30T01:46:21;9.30;;;3.78;;
57627;SDS011;43451;49.060;10.616;2023-09-30T02:00:10;10.27;;;3.88;;
57627;SDS011;43451;49.060;10.616;2023-09-30T02:02:37;9.27;;;4.00;;
57627;SDS011;43451;49.060;10.616;2023-09-30T02:05:03;10.77;;;4.00;;
57627;SDS011;43451;49.060;10.616;2023-09-30T02:10:10;10.77;;;4.05;;
57627;SDS011;43451;49.060;10.616;2023-09-30T02:12:40;10.23;;;4.22;;
57627;SDS011;43451;49.060;10.616;2023-09-30T02:21:32;9.13;;;3.70;;
57627;SDS011;43451;49.060;10.616;2023-09-30T02:23:57;9.63;;;3.72;;
57627;SDS011;43451;49.060;10.616;2023-09-30T02:26:23;10.52;;;3.50;;
57627;SDS011;43451;49.060;10.616;2023-09-30T02:28:56;8.15;;;3.33;;
57627;SDS011;43451;49.060;10.616;2023-09-30T02:31:21;7.85;;;3.33;;
57627;SDS011;43451;49.060;10.616;2023-09-30T02:33:48;7.47;;;3.10;;
57627;SDS011;43451;49.060;10.616;2023-09-30T02:42:20;6.90;;;3.13;;
57627;SDS011;43451;49.060;10.616;2023-09-30T02:47:37;8.10;;;3.13;;
57627;SDS011;43451;49.060;10.616;2023-09-30T02:50:17;8.88;;;3.35;;
57627;SDS011;43451;49.060;10.616;2023-09-30T02:52:43;7.75;;;3.38;;
57627;SDS011;43451;49.060;10.616;2023-09-30T02:55:14;7.45;;;3.33;;
57627;SDS011;43451;49.060;10.616;2023-09-30T02:57:40;9.32;;;3.28;;
57627;SDS011;43451;49.060;10.616;2023-09-30T03:00:06;7.80;;;3.47;;
57627;SDS011;43451;49.060;10.616;2023-09-30T03:02:53;8.88;;;2.92;;
57627;SDS011;43451;49.060;10.616;2023-09-30T03:05:19;6.68;;;3.08;;
57627;SDS011;43451;49.060;10.616;2023-09-30T03:07:45;10.35;;;3.30;;
57627;SDS011;43451;49.060;10.616;2023-09-30T03:10:12;9.13;;;3.50;;
57627;SDS011;43451;49.060;10.616;2023-09-30T03:15:46;4.93;;;2.38;;
57627;SDS011;43451;49.060;10.616;2023-09-30T03:18:14;4.88;;;2.03;;
57627;SDS011;43451;49.060;10.616;2023-09-30T03:20:42;4.00;;;1.90;;
57627;SDS011;43451;49.060;10.616;2023-09-30T03:23:08;3.03;;;1.85;;
57627;SDS011;43451;49.060;10.616;2023-09-30T03:25:33;3.97;;;1.60;;
57627;SDS011;43451;49.060;10.616;2023-09-30T03:30:49;2.72;;;1.40;;
57627;SDS011;43451;49.060;10.616;2023-09-30T03:33:14;3.10;;;1.80;;
57627;SDS011;43451;49.060;10.616;2023-09-30T03:35:39;3.13;;;1.45;;
57627;SDS011;43451;49.060;10.616;2023-09-30T03:38:06;3.38;;;1.67;;
57627;SDS011;43451;49.060;10.616;2023-09-30T03:43:14;3.53;;;1.60;;
57627;SDS011;43451;49.060;10.616;2023-09-30T03:45:39;3.10;;;1.48;;
57627;SDS011;43451;49.060;10.616;2023-09-30T03:48:06;3.03;;;1.70;;
57627;SDS011;43451;49.060;10.616;2023-09-30T03:50:32;3.67;;;1.70;;
57627;SDS011;43451;49.060;10.616;2023-09-30T03:53:01;4.15;;;1.65;;
57627;SDS011;43451;49.060;10.616;2023-09-30T03:55:27;3.28;;;1.70;;
57627;SDS011;43451;49.060;10.616;2023-09-30T03:57:55;5.88;;;1.77;;
57627;SDS011;43451;49.060;10.616;2023-09-30T04:00:21;5.03;;;1.73;;
57627;SDS011;43451;49.060;10.616;2023-09-30T04:02:46;3.60;;;1.80;;
57627;SDS011;43451;49.060;10.616;2023-09-30T04:07:50;4.88;;;1.75;;
57627;SDS011;43451;49.060;10.616;2023-09-30T04:13:30;4.45;;;1.88;;
57627;SDS011;43451;49.060;10.616;2023-09-30T04:15:56;3.90;;;1.63;;
57627;SDS011;43451;49.060;10.616;2023-09-30T04:18:23;5.53;;;1.80;;
57627;SDS011;43451;49.060;10.616;2023-09-30T04:25:52;6.20;;;2.00;;
57627;SDS011;43451;49.060;10.616;2023-09-30T04:28:35;4.10;;;1.65;;
57627;SDS011;43451;49.060;10.616;2023-09-30T04:31:00;5.13;;;2.00;;
57627;SDS011;43451;49.060;10.616;2023-09-30T04:33:27;3.33;;;1.75;;
57627;SDS011;43451;49.060;10.616;2023-09-30T04:36:09;5.50;;;2.00;;
57627;SDS011;43451;49.060;10.616;2023-09-30T04:46:42;5.70;;;1.90;;
57627;SDS011;43451;49.060;10.616;2023-09-30T04:49:11;5.05;;;2.10;;
57627;SDS011;43451;49.060;10.616;2023-09-30T04:51:52;4.80;;;2.10;;
57627;SDS011;43451;49.060;10.616;2023-09-30T04:54:17;5.15;;;2.00;;
57627;SDS011;43451;49.060;10.616;2023-09-30T04:56:43;5.45;;;2.05;;
57627;SDS011;43451;49.060;10.616;2023-09-30T04:59:08;4.15;;;2.00;;
57627;SDS011;43451;49.060;10.616;2023-09-30T05:01:33;5.57;;;2.20;;
57627;SDS011;43451;49.060;10.616;2023-09-30T05:06:54;4.85;;;2.08;;
57627;SDS011;43451;49.060;10.616;2023-09-30T05:09:20;4.90;;;2.33;;
57627;SDS011;43451;49.060;10.616;2023-09-30T05:11:45;5.75;;;2.20;;
57627;SDS011;43451;49.060;10.616;2023-09-30T05:14:11;3.92;;;2.10;;
57627;SDS011;43451;49.060;10.616;2023-09-30T05:16:36;5.47;;;2.30;;
57627;SDS011;43451;49.060;10.616;2023-09-30T05:19:02;5.40;;;2.05;;
57627;SDS011;43451;49.060;10.616;2023-09-30T05:21:29;5.43;;;2.30;;
57627;SDS011;43451;49.060;10.616;2023-09-30T05:23:55;5.30;;;2.30;;
57627;SDS011;43451;49.060;10.616;2023-09-30T05:26:21;5.97;;;2.10;;
57627;SDS011;43451;49.060;10.616;2023-09-30T05:28:46;5.85;;;2.22;;
57627;SDS011;43451;49.060;10.616;2023-09-30T05:31:12;5.20;;;2.10;;
57627;SDS011;43451;49.060;10.616;2023-09-30T05:33:37;7.00;;;2.50;;
57627;SDS011;43451;49.060;10.616;2023-09-30T05:36:03;4.80;;;2.25;;
57627;SDS011;43451;49.060;10.616;2023-09-30T05:38:28;4.68;;;2.08;;
57627;SDS011;43451;49.060;10.616;2023-09-30T05:44:18;4.78;;;2.22;;
57627;SDS011;43451;49.060;10.616;2023-09-30T05:46:44;4.40;;;2.20;;
57627;SDS011;43451;49.060;10.616;2023-09-30T05:51:45;6.18;;;2.22;;
57627;SDS011;43451;49.060;10.616;2023-09-30T05:54:11;5.53;;;2.40;;
57627;SDS011;43451;49.060;10.616;2023-09-30T05:56:46;7.80;;;2.25;;
57627;SDS011;43451;49.060;10.616;2023-09-30T05:59:12;6.70;;;2.47;;
57627;SDS011;43451;49.060;10.616;2023-09-30T06:01:38;5.43;;;2.38;;
57627;SDS011;43451;49.060;10.616;2023-09-30T06:04:08;4.40;;;2.20;;
57627;SDS011;43451;49.060;10.616;2023-09-30T06:06:34;5.18;;;2.33;;
57627;SDS011;43451;49.060;10.616;2023-09-30T06:09:04;6.05;;;2.10;;
57627;SDS011;43451;49.060;10.616;2023-09-30T06:11:32;5.18;;;2.15;;
57627;SDS011;43451;49.060;10.616;2023-09-30T06:13:58;5.05;;;2.47;;
57627;SDS011;43451;49.060;10.616;2023-09-30T06:16:26;12.50;;;3.35;;
57627;SDS011;43451;49.060;10.616;2023-09-30T06:18:56;4.60;;;2.15;;
57627;SDS011;43451;49.060;10.616;2023-09-30T06:21:23;5.10;;;2.30;;
57627;SDS011;43451;49.060;10.616;2023-09-30T06:23:50;7.38;;;2.90;;
57627;SDS011;43451;49.060;10.616;2023-09-30T06:26:27;6.67;;;2.37;;
57627;SDS011;43451;49.060;10.616;2023-09-30T06:35:27;6.65;;;2.55;;
57627;SDS011;43451;49.060;10.616;2023-09-30T06:41:03;5.13;;;2.15;;
57627;SDS011;43451;49.060;10.616;2023-09-30T06:43:40;6.75;;;2.10;;
57627;SDS011;43451;49.060;10.616;2023-09-30T06:46:07;4.88;;;2.53;;
57627;SDS011;43451;49.060;10.616;2023-09-30T06:48:52;4.60;;;2.17;;
57627;SDS011;43451;49.060;10.616;2023-09-30T06:54:08;6.05;;;2.33;;
57627;SDS011;43451;49.060;10.616;2023-09-30T06:56:50;7.50;;;2.45;;
57627;SDS011;43451;49.060;10.616;2023-09-30T06:59:20;4.88;;;2.03;;
57627;SDS011;43451;49.060;10.616;2023-09-30T07:01:51;4.75;;;2.00;;
57627;SDS011;43451;49.060;10.616;2023-09-30T07:10:57;4.65;;;2.00;;
57627;SDS011;43451;49.060;10.616;2023-09-30T07:15:57;4.53;;;2.20;;
57627;SDS011;43451;49.060;10.616;2023-09-30T07:21:06;7.18;;;2.05;;
57627;SDS011;43451;49.060;10.616;2023-09-30T07:23:32;5.53;;;2.30;;
57627;SDS011;43451;49.060;10.616;2023-09-30T07:25:58;6.03;;;2.20;;
57627;SDS011;43451;49.060;10.616;2023-09-30T07:28:30;6.30;;;2.15;;
57627;SDS011;43451;49.060;10.616;2023-09-30T07:30:56;6.18;;;2.25;;
57627;SDS011;43451;49.060;10.616;2023-09-30T07:33:22;7.53;;;2.50;;
57627;SDS011;43451;49.060;10.616;2023-09-30T07:35:50;5.35;;;2.00;;
57627;SDS011;43451;49.060;10.616;2023-09-30T07:38:15;4.60;;;1.92;;
57627;SDS011;43451;49.060;10.616;2023-09-30T07:40:43;4.85;;;2.05;;
57627;SDS011;43451;49.060;10.616;2023-09-30T07:43:10;3.17;;;1.70;;
57627;SDS011;43451;49.060;10.616;2023-09-30T07:45:37;5.50;;;2.10;;
57627;SDS011;43451;49.060;10.616;2023-09-30T07:48:09;5.32;;;2.10;;
57627;SDS011;43451;49.060;10.616;2023-09-30T07:50:35;5.97;;;2.00;;
57627;SDS011;43451;49.060;10.616;2023-09-30T07:53:01;6.85;;;2.40;;
57627;SDS011;43451;49.060;10.616;2023-09-30T07:55:34;5.13;;;2.22;;
57627;SDS011;43451;49.060;10.616;2023-09-30T07:58:00;5.88;;;2.28;;
57627;SDS011;43451;49.060;10.616;2023-09-30T08:03:02;7.97;;;2.20;;
57627;SDS011;43451;49.060;10.616;2023-09-30T08:05:29;6.57;;;2.10;;
57627;SDS011;43451;49.060;10.616;2023-09-30T08:07:55;5.28;;;2.30;;
57627;SDS011;43451;49.060;10.616;2023-09-30T08:10:21;5.93;;;2.08;;
57627;SDS011;43451;49.060;10.616;2023-09-30T08:12:50;4.55;;;1.98;;
57627;SDS011;43451;49.060;10.616;2023-09-30T08:15:15;4.13;;;1.70;;
57627;SDS011;43451;49.060;10.616;2023-09-30T08:17:41;7.07;;;2.25;;
57627;SDS011;43451;49.060;10.616;2023-09-30T08:20:08;6.05;;;2.40;;
57627;SDS011;43451;49.060;10.616;2023-09-30T08:25:05;6.00;;;2.20;;
57627;SDS011;43451;49.060;10.616;2023-09-30T08:27:35;4.30;;;2.00;;
57627;SDS011;43451;49.060;10.616;2023-09-30T08:30:02;5.30;;;2.13;;
57627;SDS011;43451;49.060;10.616;2023-09-30T08:32:32;5.28;;;2.00;;
57627;SDS011;43451;49.060;10.616;2023-09-30T08:34:58;5.68;;;2.25;;
57627;SDS011;43451;49.060;10.616;2023-09-30T08:37:24;9.48;;;2.72;;
57627;SDS011;43451;49.060;10.616;2023-09-30T08:39:49;4.65;;;2.60;;
57627;SDS011;43451;49.060;10.616;2023-09-30T08:42:15;6.20;;;2.28;;
57627;SDS011;43451;49.060;10.616;2023-09-30T08:44:43;5.35;;;2.10;;
57627;SDS011;43451;49.060;10.616;2023-09-30T08:47:09;4.80;;;2.15;;
57627;SDS011;43451;49.060;10.616;2023-09-30T08:49:37;4.05;;;2.08;;
57627;SDS011;43451;49.060;10.616;2023-09-30T08:52:06;7.32;;;2.67;;
57627;SDS011;43451;49.060;10.616;2023-09-30T08:57:10;5.25;;;2.40;;
57627;SDS011;43451;49.060;10.616;2023-09-30T08:59:46;7.95;;;2.70;;
57627;SDS011;43451;49.060;10.616;2023-09-30T09:02:13;5.75;;;2.42;;
57627;SDS011;43451;49.060;10.616;2023-09-30T09:04:40;5.43;;;2.58;;
57627;SDS011;43451;49.060;10.616;2023-09-30T09:07:07;6.70;;;3.00;;
57627;SDS011;43451;49.060;10.616;2023-09-30T09:09:37;7.80;;;2.85;;
57627;SDS011;43451;49.060;10.616;2023-09-30T09:12:03;6.13;;;2.58;;
57627;SDS011;43451;49.060;10.616;2023-09-30T09:14:42;8.65;;;2.97;;
57627;SDS011;43451;49.060;10.616;2023-09-30T09:19:43;7.97;;;2.78;;
57627;SDS011;43451;49.060;10.616;2023-09-30T09:22:12;9.25;;;3.47;;
57627;SDS011;43451;49.060;10.616;2023-09-30T09:24:38;7.10;;;2.97;;
57627;SDS011;43451;49.060;10.616;2023-09-30T09:32:13;5.65;;;2.78;;
57627;SDS011;43451;49.060;10.616;2023-09-30T09:34:41;7.45;;;3.45;;
57627;SDS011;43451;49.060;10.616;2023-09-30T09:37:21;8.45;;;3.40;;
57627;SDS011;43451;49.060;10.616;2023-09-30T09:39:51;11.88;;;3.58;;
57627;SDS011;43451;49.060;10.616;2023-09-30T09:42:24;12.80;;;3.63;;
57627;SDS011;43451;49.060;10.616;2023-09-30T09:44:54;10.90;;;3.63;;
57627;SDS011;43451;49.060;10.616;2023-09-30T09:47:21;11.20;;;3.65;;
57627;SDS011;43451;49.060;10.616;2023-09-30T09:49:46;10.38;;;3.53;;
57627;SDS011;43451;49.060;10.616;2023-09-30T09:52:12;7.47;;;3.72;;
57627;SDS011;43451;49.060;10.616;2023-09-30T09:54:40;8.48;;;3.75;;
57627;SDS011;43451;49.060;10.616;2023-09-30T09:57:10;8.02;;;4.20;;
57627;SDS011;43451;49.060;10.616;2023-09-30T09:59:38;8.38;;;4.32;;
57627;SDS011;43451;49.060;10.616;2023-09-30T10:02:09;11.30;;;5.13;;
57627;SDS011;43451;49.060;10.616;2023-09-30T10:04:37;11.88;;;4.50;;
57627;SDS011;43451;49.060;10.616;2023-09-30T10:07:02;9.43;;;4.45;;
57627;SDS011;43451;49.060;10.616;2023-09-30T10:09:32;8.48;;;4.03;;
57627;SDS011;43451;49.060;10.616;2023-09-30T10:12:03;9.43;;;4.32;;
57627;SDS011;43451;49.060;10.616;2023-09-30T10:14:35;11.93;;;4.55;;
57627;SDS011;43451;49.060;10.616;2023-09-30T10:17:01;8.82;;;4.53;;
57627;SDS011;43451;49.060;10.616;2023-09-30T10:19:28;10.23;;;4.40;;
57627;SDS011;43451;49.060;10.616;2023-09-30T10:24:50;10.25;;;4.90;;
57627;SDS011;43451;49.060;10.616;2023-09-30T10:29:56;9.98;;;4.10;;
57627;SDS011;43451;49.060;10.616;2023-09-30T10:32:25;9.52;;;4.05;;
57627;SDS011;43451;49.060;10.616;2023-09-30T10:37:43;9.13;;;4.07;;
57627;SDS011;43451;49.060;10.616;2023-09-30T10:40:10;10.88;;;4.50;;
57627;SDS011;43451;49.060;10.616;2023-09-30T10:42:53;9.52;;;4.45;;
57627;SDS011;43451;49.060;10.616;2023-09-30T10:51:19;9.52;;;4.53;;
57627;SDS011;43451;49.060;10.616;2023-09-30T10:53:50;8.48;;;4.25;;
57627;SDS011;43451;49.060;10.616;2023-09-30T10:56:17;12.45;;;5.57;;
57627;SDS011;43451;49.060;10.616;2023-09-30T11:01:19;10.18;;;4.68;;
57627;SDS011;43451;49.060;10.616;2023-09-30T11:03:48;9.90;;;4.72;;
57627;SDS011;43451;49.060;10.616;2023-09-30T11:06:17;10.70;;;4.95;;
57627;SDS011;43451;49.060;10.616;2023-09-30T11:08:51;10.45;;;4.85;;
57627;SDS011;43451;49.060;10.616;2023-09-30T11:11:31;11.13;;;5.05;;
57627;SDS011;43451;49.060;10.616;2023-09-30T11:14:24;11.70;;;4.45;;
57627;SDS011;43451;49.060;10.616;2023-09-30T11:16:54;11.45;;;5.00;;
57627;SDS011;43451;49.060;10.616;2023-09-30T11:19:22;12.07;;;5.00;;
57627;SDS011;43451;49.060;10.616;2023-09-30T11:21:53;11.05;;;5.03;;
57627;SDS011;43451;49.060;10.616;2023-09-30T11:24:23;9.38;;;4.93;;
57627;SDS011;43451;49.060;10.616;2023-09-30T11:26:52;13.80;;;4.88;;
57627;SDS011;43451;49.060;10.616;2023-09-30T11:29:19;10.10;;;5.00;;
57627;SDS011;43451;49.060;10.616;2023-09-30T11:31:47;9.40;;;4.57;;
57627;SDS011;43451;49.060;10.616;2023-09-30T11:34:17;10.77;;;4.43;;
57627;SDS011;43451;49.060;10.616;2023-09-30T11:36:47;11.07;;;5.07;;
57627;SDS011;43451;49.060;10.616;2023-09-30T11:39:25;11.27;;;4.72;;
57627;SDS011;43451;49.060;10.616;2023-09-30T11:41:53;14.40;;;5.50;;
57627;SDS011;43451;49.060;10.616;2023-09-30T11:44:22;11.32;;;5.05;;
57627;SDS011;43451;49.060;10.616;2023-09-30T11:46:55;11.07;;;4.78;;
57627;SDS011;43451;49.060;10.616;2023-09-30T11:52:00;11.25;;;4.72;;
57627;SDS011;43451;49.060;10.616;2023-09-30T11:54:39;11.85;;;5.00;;
57627;SDS011;43451;49.060;10.616;2023-09-30T11:57:09;9.55;;;4.70;;
57627;SDS011;43451;49.060;10.616;2023-09-30T11:59:36;12.77;;;4.70;;
57627;SDS011;43451;49.060;10.616;2023-09-30T12:02:03;13.10;;;5.32;;
57627;SDS011;43451;49.060;10.616;2023-09-30T12:06:57;10.35;;;5.18;;
57627;SDS011;43451;49.060;10.616;2023-09-30T12:09:23;10.95;;;4.90;;
57627;SDS011;43451;49.060;10.616;2023-09-30T12:11:51;10.68;;;4.82;;
57627;SDS011;43451;49.060;10.616;2023-09-30T12:14:20;10.45;;;4.68;;
57627;SDS011;43451;49.060;10.616;2023-09-30T12:16:46;11.07;;;4.68;;
57627;SDS011;43451;49.060;10.616;2023-09-30T12:19:16;11.30;;;4.95;;
57627;SDS011;43451;49.060;10.616;2023-09-30T12:21:43;10.45;;;4.80;;
57627;SDS011;43451;49.060;10.616;2023-09-30T12:24:12;14.43;;;5.10;;
57627;SDS011;43451;49.060;10.616;2023-09-30T12:26:45;13.02;;;5.15;;
57627;SDS011;43451;49.060;10.616;2023-09-30T12:29:15;12.52;;;5.03;;
57627;SDS011;43451;49.060;10.616;2023-09-30T12:31:46;12.35;;;5.00;;
57627;SDS011;43451;49.060;10.616;2023-09-30T12:34:13;11.73;;;5.03;;
57627;SDS011;43451;49.060;10.616;2023-09-30T12:36:41;9.55;;;4.85;;
57627;SDS011;43451;49.060;10.616;2023-09-30T12:39:08;11.20;;;5.18;;
57627;SDS011;43451;49.060;10.616;2023-09-30T12:41:42;12.02;;;5.07;;
57627;SDS011;43451;49.060;10.616;2023-09-30T12:44:08;11.85;;;5.07;;
57627;SDS011;43451;49.060;10.616;2023-09-30T12:46:35;11.80;;;5.05;;
57627;SDS011;43451;49.060;10.616;2023-09-30T12:49:08;11.57;;;5.20;;
57627;SDS011;43451;49.060;10.616;2023-09-30T12:51:35;12.95;;;5.15;;
57627;SDS011;43451;49.060;10.616;2023-09-30T12:54:01;14.70;;;5.00;;
57627;SDS011;43451;49.060;10.616;2023-09-30T12:56:27;10.10;;;4.80;;
57627;SDS011;43451;49.060;10.616;2023-09-30T12:58:55;18.27;;;5.88;;
57627;SDS011;43451;49.060;10.616;2023-09-30T13:01:21;12.68;;;4.90;;
57627;SDS011;43451;49.060;10.616;2023-09-30T13:03:48;13.27;;;4.95;;
57627;SDS011;43451;49.060;10.616;2023-09-30T13:06:14;15.00;;;4.97;;
57627;SDS011;43451;49.060;10.616;2023-09-30T13:08:41;9.17;;;4.63;;
57627;SDS011;43451;49.060;10.616;2023-09-30T13:11:08;11.80;;;4.75;;
57627;SDS011;43451;49.060;10.616;2023-09-30T13:13:33;11.80;;;4.60;;
57627;SDS011;43451;49.060;10.616;2023-09-30T13:16:01;13.73;;;4.97;;
57627;SDS011;43451;49.060;10.616;2023-09-30T13:18:30;11.52;;;5.50;;
57627;SDS011;43451;49.060;10.616;2023-09-30T13:20:56;15.98;;;5.50;;
57627;SDS011;43451;49.060;10.616;2023-09-30T13:23:22;14.10;;;5.40;;
57627;SDS011;43451;49.060;10.616;2023-09-30T13:25:47;10.32;;;5.07;;
57627;SDS011;43451;49.060;10.616;2023-09-30T13:28:13;13.00;;;4.97;;
57627;SDS011;43451;49.060;10.616;2023-09-30T13:30:39;13.10;;;5.20;;
57627;SDS011;43451;49.060;10.616;2023-09-30T13:33:04;11.20;;;5.10;;
57627;SDS011;43451;49.060;10.616;2023-09-30T13:35:31;12.57;;;4.97;;
57627;SDS011;43451;49.060;10.616;2023-09-30T13:37:57;11.40;;;4.90;;
57627;SDS011;43451;49.060;10.616;2023-09-30T13:40:23;12.32;;;5.20;;
57627;SDS011;43451;49.060;10.616;2023-09-30T13:42:48;20.08;;;5.57;;
57627;SDS011;43451;49.060;10.616;2023-09-30T13:45:14;12.82;;;5.25;;
57627;SDS011;43451;49.060;10.616;2023-09-30T13:47:42;11.18;;;4.80;;
57627;SDS011;43451;49.060;10.616;2023-09-30T13:50:07;11.77;;;5.18;;
57627;SDS011;43451;49.060;10.616;2023-09-30T13:52:33;10.90;;;5.07;;
57627;SDS011;43451;49.060;10.616;2023-09-30T13:54:59;11.75;;;5.03;;
57627;SDS011;43451;49.060;10.616;2023-09-30T13:57:25;12.30;;;4.95;;
57627;SDS011;43451;49.060;10.616;2023-09-30T13:59:50;11.55;;;5.13;;
57627;SDS011;43451;49.060;10.616;2023-09-30T14:02:18;10.93;;;5.07;;
57627;SDS011;43451;49.060;10.616;2023-09-30T14:04:44;17.55;;;5.18;;
57627;SDS011;43451;49.060;10.616;2023-09-30T14:07:10;11.25;;;5.18;;
57627;SDS011;43451;49.060;10.616;2023-09-30T14:09:35;14.88;;;5.13;;
57627;SDS011;43451;49.060;10.616;2023-09-30T14:12:01;12.45;;;5.00;;
57627;SDS011;43451;49.060;10.616;2023-09-30T14:14:30;13.80;;;5.50;;
57627;SDS011;43451;49.060;10.616;2023-09-30T14:16:56;12.25;;;5.50;;
57627;SDS011;43451;49.060;10.616;2023-09-30T14:19:22;10.30;;;4.80;;
57627;SDS011;43451;49.060;10.616;2023-09-30T14:21:50;10.32;;;4.95;;
57627;SDS011;43451;49.060;10.616;2023-09-30T14:24:15;9.63;;;4.50;;
57627;SDS011;43451;49.060;10.616;2023-09-30T14:26:42;9.70;;;4.63;;
57627;SDS011;43451;49.060;10.616;2023-09-30T14:29:09;10.75;;;4.53;;
57627;SDS011;43451;49.060;10.616;2023-09-30T14:31:38;9.10;;;4.57;;
57627;SDS011;43451;49.060;10.616;2023-09-30T14:34:04;11.02;;;4.95;;
57627;SDS011;43451;49.060;10.616;2023-09-30T14:36:30;11.48;;;5.32;;
57627;SDS011;43451;49.060;10.616;2023-09-30T14:38:58;14.15;;;4.90;;
57627;SDS011;43451;49.060;10.616;2023-09-30T14:41:24;10.55;;;5.30;;
57627;SDS011;43451;49.060;10.616;2023-09-30T14:43:49;15.63;;;7.85;;
57627;SDS011;43451;49.060;10.616;2023-09-30T14:46:15;9.90;;;5.10;;
57627;SDS011;43451;49.060;10.616;2023-09-30T14:48:40;10.23;;;4.65;;
57627;SDS011;43451;49.060;10.616;2023-09-30T14:51:07;10.50;;;4.70;;
57627;SDS011;43451;49.060;10.616;2023-09-30T14:56:01;9.75;;;5.10;;
57627;SDS011;43451;49.060;10.616;2023-09-30T14:58:27;11.88;;;5.30;;
57627;SDS011;43451;49.060;10.616;2023-09-30T15:00:52;16.63;;;5.55;;
57627;SDS011;43451;49.060;10.616;2023-09-30T15:03:18;9.43;;;4.90;;
57627;SDS011;43451;49.060;10.616;2023-09-30T15:05:46;12.80;;;4.90;;
57627;SDS011;43451;49.060;10.616;2023-09-30T15:08:14;10.32;;;5.10;;
57627;SDS011;43451;49.060;10.616;2023-09-30T15:10:40;12.90;;;5.20;;
57627;SDS011;43451;49.060;10.616;2023-09-30T15:13:06;10.95;;;4.82;;
57627;SDS011;43451;49.060;10.616;2023-09-30T15:15:35;12.35;;;4.95;;
57627;SDS011;43451;49.060;10.616;2023-09-30T15:18:01;13.57;;;5.20;;
57627;SDS011;43451;49.060;10.616;2023-09-30T15:20:27;8.95;;;4.70;;
57627;SDS011;43451;49.060;10.616;2023-09-30T15:22:55;12.20;;;4.90;;
57627;SDS011;43451;49.060;10.616;2023-09-30T15:25:22;11.18;;;5.35;;
57627;SDS011;43451;49.060;10.616;2023-09-30T15:27:48;11.73;;;5.28;;
57627;SDS011;43451;49.060;10.616;2023-09-30T15:30:14;10.50;;;4.88;;
57627;SDS011;43451;49.060;10.616;2023-09-30T15:32:39;10.32;;;4.93;;
57627;SDS011;43451;49.060;10.616;2023-09-30T15:35:06;10.80;;;5.27;;
57627;SDS011;43451;49.060;10.616;2023-09-30T15:37:32;11.23;;;4.80;;
57627;SDS011;43451;49.060;10.616;2023-09-30T15:39:57;12.70;;;5.28;;
57627;SDS011;43451;49.060;10.616;2023-09-30T15:42:23;13.13;;;5.45;;
57627;SDS011;43451;49.060;10.616;2023-09-30T15:44:48;10.82;;;5.07;;
57627;SDS011;43451;49.060;10.616;2023-09-30T15:47:18;12.07;;;4.82;;
57627;SDS011;43451;49.060;10.616;2023-09-30T15:49:44;12.98;;;5.63;;
57627;SDS011;43451;49.060;10.616;2023-09-30T15:52:13;11.07;;;5.20;;
57627;SDS011;43451;49.060;10.616;2023-09-30T15:54:39;11.73;;;5.00;;
57627;SDS011;43451;49.060;10.616;2023-09-30T15:57:04;13.13;;;5.45;;
57627;SDS011;43451;49.060;10.616;2023-09-30T15:59:30;11.35;;;5.10;;
57627;SDS011;43451;49.060;10.616;2023-09-30T16:01:55;26.42;;;5.97;;
57627;SDS011;43451;49.060;10.616;2023-09-30T16:04:21;12.02;;;5.70;;
57627;SDS011;43451;49.060;10.616;2023-09-30T16:06:51;13.80;;;6.20;;
57627;SDS011;43451;49.060;10.616;2023-09-30T16:09:17;21.52;;;5.82;;
57627;SDS011;43451;49.060;10.616;2023-09-30T16:11:42;21.10;;;6.38;;
57627;SDS011;43451;49.060;10.616;2023-09-30T16:14:08;11.18;;;5.30;;
57627;SDS011;43451;49.060;10.616;2023-09-30T16:16:38;15.00;;;5.80;;
57627;SDS011;43451;49.060;10.616;2023-09-30T16:19:10;22.52;;;5.75;;
57627;SDS011;43451;49.060;10.616;2023-09-30T16:21:35;15.80;;;5.60;;
57627;SDS011;43451;49.060;10.616;2023-09-30T16:24:19;26.50;;;5.70;;
57627;SDS011;43451;49.060;10.616;2023-09-30T16:26:46;11.25;;;4.88;;
57627;SDS011;43451;49.060;10.616;2023-09-30T16:29:11;14.23;;;5.40;;
57627;SDS011;43451;49.060;10.616;2023-09-30T16:31:37;18.02;;;5.60;;
57627;SDS011;43451;49.060;10.616;2023-09-30T16:34:03;21.05;;;5.97;;
57627;SDS011;43451;49.060;10.616;2023-09-30T16:36:31;18.70;;;5.72;;
57627;SDS011;43451;49.060;10.616;2023-09-30T16:38:57;10.25;;;4.47;;
57627;SDS011;43451;49.060;10.616;2023-09-30T16:41:22;18.52;;;5.40;;
57627;SDS011;43451;49.060;10.616;2023-09-30T16:43:48;12.70;;;4.80;;
57627;SDS011;43451;49.060;10.616;2023-09-30T16:46:13;13.30;;;5.05;;
57627;SDS011;43451;49.060;10.616;2023-09-30T16:48:39;10.23;;;5.03;;
57627;SDS011;43451;49.060;10.616;2023-09-30T16:51:08;13.05;;;4.97;;
57627;SDS011;43451;49.060;10.616;2023-09-30T16:53:36;11.30;;;5.15;;
57627;SDS011;43451;49.060;10.616;2023-09-30T16:56:03;14.32;;;5.40;;
57627;SDS011;43451;49.060;10.616;2023-09-30T16:58:29;20.15;;;6.22;;
57627;SDS011;43451;49.060;10.616;2023-09-30T17:00:56;9.60;;;4.78;;
57627;SDS011;43451;49.060;10.616;2023-09-30T17:03:26;13.88;;;4.70;;
57627;SDS011;43451;49.060;10.616;2023-09-30T17:05:52;12.10;;;4.60;;